sensor_id;sensor_type;location;lat;lon;timestamp;P1;durP1;ratioP1;P2;durP2;ratioP2
69542;SDS011;56762;49.494;11.768;2022-09-27T00:01:48;1.97;;;0.50;;
69542;SDS011;56762;49.494;11.768;2022-09-27T00:04:16;1.85;;;0.50;;
69542;SDS011;56762;49.494;11.768;2022-09-27T00:06:44;2.67;;;0.60;;
69542;SDS011;56762;49.494;11.768;2022-09-27T00:09:15;1.70;;;0.70;;
69542;SDS011;56762;49.494;11.768;2022-09-27T00:11:43;2.67;;;0.80;;
69542;SDS011;56762;49.494;11.768;2022-09-27T00:14:11;1.80;;;0.60;;
69542;SDS011;56762;49.494;11.768;2022-09-27T00:16:45;2.00;;;0.60;;
69542;SDS011;56762;49.494;11.768;2022-09-27T00:19:14;1.95;;;0.73;;
69542;SDS011;56762;49.494;11.768;2022-09-27T00:21:43;2.55;;;0.90;;
69542;SDS011;56762;49.494;11.768;2022-09-27T00:24:12;3.30;;;0.93;;
69542;SDS011;56762;49.494;11.768;2022-09-27T00:26:41;2.20;;;0.93;;
69542;SDS011;56762;49.494;11.768;2022-09-27T00:29:10;2.55;;;0.90;;
69542;SDS011;56762;49.494;11.768;2022-09-27T00:31:38;2.65;;;1.02;;
69542;SDS011;56762;49.494;11.768;2022-09-27T00:34:09;2.50;;;1.05;;
69542;SDS011;56762;49.494;11.768;2022-09-27T00:36:44;3.22;;;0.95;;
69542;SDS011;56762;49.494;11.768;2022-09-27T00:39:12;3.67;;;1.23;;
69542;SDS011;56762;49.494;11.768;2022-09-27T00:41:40;2.58;;;1.00;;
69542;SDS011;56762;49.494;11.768;2022-09-27T00:47:22;3.10;;;1.02;;
69542;SDS011;56762;49.494;11.768;2022-09-27T00:49:55;4.65;;;1.38;;
69542;SDS011;56762;49.494;11.768;2022-09-27T00:52:28;3.20;;;1.50;;
69542;SDS011;56762;49.494;11.768;2022-09-27T00:55:04;3.58;;;1.10;;
69542;SDS011;56762;49.494;11.768;2022-09-27T00:57:36;3.30;;;1.08;;
69542;SDS011;56762;49.494;11.768;2022-09-27T01:00:08;3.90;;;1.13;;
69542;SDS011;56762;49.494;11.768;2022-09-27T01:02:41;3.47;;;1.30;;
69542;SDS011;56762;49.494;11.768;2022-09-27T01:05:15;3.73;;;1.40;;
69542;SDS011;56762;49.494;11.768;2022-09-27T01:07:48;3.47;;;1.05;;
69542;SDS011;56762;49.494;11.768;2022-09-27T01:10:16;5.57;;;1.70;;
69542;SDS011;56762;49.494;11.768;2022-09-27T01:12:50;2.45;;;0.90;;
69542;SDS011;56762;49.494;11.768;2022-09-27T01:15:28;3.50;;;1.27;;
69542;SDS011;56762;49.494;11.768;2022-09-27T01:18:09;2.30;;;0.93;;
69542;SDS011;56762;49.494;11.768;2022-09-27T01:20:54;2.97;;;1.10;;
69542;SDS011;56762;49.494;11.768;2022-09-27T01:23:50;2.17;;;0.98;;
69542;SDS011;56762;49.494;11.768;2022-09-27T01:26:45;2.60;;;1.30;;
69542;SDS011;56762;49.494;11.768;2022-09-27T01:29:28;3.15;;;1.20;;
69542;SDS011;56762;49.494;11.768;2022-09-27T01:32:06;3.10;;;1.23;;
69542;SDS011;56762;49.494;11.768;2022-09-27T01:34:42;2.80;;;1.00;;
69542;SDS011;56762;49.494;11.768;2022-09-27T01:37:14;2.22;;;1.05;;
69542;SDS011;56762;49.494;11.768;2022-09-27T01:39:49;2.95;;;1.05;;
69542;SDS011;56762;49.494;11.768;2022-09-27T01:42:25;3.17;;;1.00;;
69542;SDS011;56762;49.494;11.768;2022-09-27T01:45:00;2.63;;;0.90;;
69542;SDS011;56762;49.494;11.768;2022-09-27T01:47:32;3.58;;;0.88;;
69542;SDS011;56762;49.494;11.768;2022-09-27T01:50:08;2.65;;;1.20;;
69542;SDS011;56762;49.494;11.768;2022-09-27T01:52:41;3.38;;;1.08;;
69542;SDS011;56762;49.494;11.768;2022-09-27T01:55:15;3.38;;;1.08;;
69542;SDS011;56762;49.494;11.768;2022-09-27T01:57:46;2.20;;;0.90;;
69542;SDS011;56762;49.494;11.768;2022-09-27T02:00:19;3.17;;;1.13;;
69542;SDS011;56762;49.494;11.768;2022-09-27T02:02:50;3.08;;;1.00;;
69542;SDS011;56762;49.494;11.768;2022-09-27T02:05:24;2.97;;;0.95;;
69542;SDS011;56762;49.494;11.768;2022-09-27T02:07:57;3.17;;;0.90;;
69542;SDS011;56762;49.494;11.768;2022-09-27T02:10:29;3.77;;;1.17;;
69542;SDS011;56762;49.494;11.768;2022-09-27T02:13:01;1.73;;;0.70;;
69542;SDS011;56762;49.494;11.768;2022-09-27T02:19:20;1.70;;;0.60;;
69542;SDS011;56762;49.494;11.768;2022-09-27T02:21:59;2.38;;;0.80;;
69542;SDS011;56762;49.494;11.768;2022-09-27T02:24:39;3.17;;;1.30;;
69542;SDS011;56762;49.494;11.768;2022-09-27T02:27:12;1.65;;;0.70;;
69542;SDS011;56762;49.494;11.768;2022-09-27T02:29:46;1.83;;;0.70;;
69542;SDS011;56762;49.494;11.768;2022-09-27T02:32:19;2.15;;;0.57;;
69542;SDS011;56762;49.494;11.768;2022-09-27T02:34:48;1.17;;;0.40;;
69542;SDS011;56762;49.494;11.768;2022-09-27T02:37:18;2.30;;;0.40;;
69542;SDS011;56762;49.494;11.768;2022-09-27T02:39:47;1.13;;;0.32;;
69542;SDS011;56762;49.494;11.768;2022-09-27T02:42:15;1.23;;;0.40;;
69542;SDS011;56762;49.494;11.768;2022-09-27T02:44:42;1.85;;;0.30;;
69542;SDS011;56762;49.494;11.768;2022-09-27T02:47:24;1.38;;;0.30;;
69542;SDS011;56762;49.494;11.768;2022-09-27T02:50:13;2.07;;;0.37;;
69542;SDS011;56762;49.494;11.768;2022-09-27T02:52:54;1.45;;;0.50;;
69542;SDS011;56762;49.494;11.768;2022-09-27T02:55:36;1.65;;;0.40;;
69542;SDS011;56762;49.494;11.768;2022-09-27T02:58:16;1.85;;;0.30;;
69542;SDS011;56762;49.494;11.768;2022-09-27T03:00:55;0.90;;;0.20;;
69542;SDS011;56762;49.494;11.768;2022-09-27T03:03:32;1.67;;;0.57;;
69542;SDS011;56762;49.494;11.768;2022-09-27T03:06:07;1.42;;;0.30;;
69542;SDS011;56762;49.494;11.768;2022-09-27T03:08:36;1.48;;;0.30;;
69542;SDS011;56762;49.494;11.768;2022-09-27T03:11:05;1.20;;;0.40;;
69542;SDS011;56762;49.494;11.768;2022-09-27T03:13:33;1.80;;;0.50;;
69542;SDS011;56762;49.494;11.768;2022-09-27T03:16:24;2.43;;;0.40;;
69542;SDS011;56762;49.494;11.768;2022-09-27T03:18:52;1.30;;;0.30;;
69542;SDS011;56762;49.494;11.768;2022-09-27T03:21:21;1.20;;;0.32;;
69542;SDS011;56762;49.494;11.768;2022-09-27T03:23:49;1.23;;;0.40;;
69542;SDS011;56762;49.494;11.768;2022-09-27T03:26:17;1.90;;;0.32;;
69542;SDS011;56762;49.494;11.768;2022-09-27T03:28:44;1.13;;;0.37;;
69542;SDS011;56762;49.494;11.768;2022-09-27T03:31:12;1.20;;;0.40;;
69542;SDS011;56762;49.494;11.768;2022-09-27T03:33:41;2.22;;;0.55;;
69542;SDS011;56762;49.494;11.768;2022-09-27T03:36:08;2.03;;;0.70;;
69542;SDS011;56762;49.494;11.768;2022-09-27T03:38:39;2.05;;;0.60;;
69542;SDS011;56762;49.494;11.768;2022-09-27T03:41:07;2.13;;;0.77;;
69542;SDS011;56762;49.494;11.768;2022-09-27T03:43:35;1.70;;;0.60;;
69542;SDS011;56762;49.494;11.768;2022-09-27T03:46:04;3.58;;;0.77;;
69542;SDS011;56762;49.494;11.768;2022-09-27T03:48:32;1.52;;;0.70;;
69542;SDS011;56762;49.494;11.768;2022-09-27T03:51:00;1.67;;;0.65;;
69542;SDS011;56762;49.494;11.768;2022-09-27T03:53:27;1.90;;;0.67;;
69542;SDS011;56762;49.494;11.768;2022-09-27T03:55:57;1.48;;;0.50;;
69542;SDS011;56762;49.494;11.768;2022-09-27T03:58:25;1.63;;;0.60;;
69542;SDS011;56762;49.494;11.768;2022-09-27T04:00:52;2.13;;;0.70;;
69542;SDS011;56762;49.494;11.768;2022-09-27T04:03:20;1.65;;;0.70;;
69542;SDS011;56762;49.494;11.768;2022-09-27T04:05:48;2.33;;;0.70;;
69542;SDS011;56762;49.494;11.768;2022-09-27T04:08:16;3.80;;;0.55;;
69542;SDS011;56762;49.494;11.768;2022-09-27T04:10:44;2.70;;;0.65;;
69542;SDS011;56762;49.494;11.768;2022-09-27T04:13:13;2.65;;;0.50;;
69542;SDS011;56762;49.494;11.768;2022-09-27T04:15:41;2.00;;;0.60;;
69542;SDS011;56762;49.494;11.768;2022-09-27T04:18:13;1.83;;;0.50;;
69542;SDS011;56762;49.494;11.768;2022-09-27T04:20:41;1.52;;;0.40;;
69542;SDS011;56762;49.494;11.768;2022-09-27T04:23:11;0.80;;;0.20;;
69542;SDS011;56762;49.494;11.768;2022-09-27T04:25:39;2.22;;;0.40;;
69542;SDS011;56762;49.494;11.768;2022-09-27T04:28:07;2.88;;;0.40;;
69542;SDS011;56762;49.494;11.768;2022-09-27T04:30:36;1.63;;;0.30;;
69542;SDS011;56762;49.494;11.768;2022-09-27T04:33:04;1.13;;;0.28;;
69542;SDS011;56762;49.494;11.768;2022-09-27T04:35:31;1.23;;;0.20;;
69542;SDS011;56762;49.494;11.768;2022-09-27T04:38:17;0.90;;;0.17;;
69542;SDS011;56762;49.494;11.768;2022-09-27T04:40:49;1.50;;;0.20;;
69542;SDS011;56762;49.494;11.768;2022-09-27T04:43:17;0.63;;;0.33;;
69542;SDS011;56762;49.494;11.768;2022-09-27T04:45:46;1.58;;;0.55;;
69542;SDS011;56762;49.494;11.768;2022-09-27T04:48:15;1.77;;;0.20;;
69542;SDS011;56762;49.494;11.768;2022-09-27T04:50:42;2.20;;;0.40;;
69542;SDS011;56762;49.494;11.768;2022-09-27T04:53:11;1.42;;;0.50;;
69542;SDS011;56762;49.494;11.768;2022-09-27T04:55:43;1.00;;;0.10;;
69542;SDS011;56762;49.494;11.768;2022-09-27T04:58:13;0.90;;;0.20;;
69542;SDS011;56762;49.494;11.768;2022-09-27T05:00:41;0.70;;;0.20;;
69542;SDS011;56762;49.494;11.768;2022-09-27T05:03:10;1.35;;;0.10;;
69542;SDS011;56762;49.494;11.768;2022-09-27T05:05:38;1.77;;;0.20;;
69542;SDS011;56762;49.494;11.768;2022-09-27T05:08:06;1.53;;;0.30;;
69542;SDS011;56762;49.494;11.768;2022-09-27T05:10:34;0.77;;;0.30;;
69542;SDS011;56762;49.494;11.768;2022-09-27T05:13:02;0.60;;;0.20;;
69542;SDS011;56762;49.494;11.768;2022-09-27T05:15:29;0.45;;;0.10;;
69542;SDS011;56762;49.494;11.768;2022-09-27T05:17:57;1.20;;;0.20;;
69542;SDS011;56762;49.494;11.768;2022-09-27T05:20:26;0.60;;;0.10;;
69542;SDS011;56762;49.494;11.768;2022-09-27T05:22:54;0.80;;;0.20;;
69542;SDS011;56762;49.494;11.768;2022-09-27T05:25:22;0.60;;;0.10;;
69542;SDS011;56762;49.494;11.768;2022-09-27T05:27:50;1.48;;;0.10;;
69542;SDS011;56762;49.494;11.768;2022-09-27T05:30:18;0.98;;;0.20;;
69542;SDS011;56762;49.494;11.768;2022-09-27T05:32:46;2.03;;;0.10;;
69542;SDS011;56762;49.494;11.768;2022-09-27T05:35:15;1.02;;;0.25;;
69542;SDS011;56762;49.494;11.768;2022-09-27T05:37:51;2.15;;;0.28;;
69542;SDS011;56762;49.494;11.768;2022-09-27T05:40:19;2.58;;;0.60;;
69542;SDS011;56762;49.494;11.768;2022-09-27T05:43:07;1.10;;;0.10;;
69542;SDS011;56762;49.494;11.768;2022-09-27T05:45:36;1.70;;;0.20;;
69542;SDS011;56762;49.494;11.768;2022-09-27T05:48:04;1.13;;;0.20;;
69542;SDS011;56762;49.494;11.768;2022-09-27T05:50:31;3.42;;;1.83;;
69542;SDS011;56762;49.494;11.768;2022-09-27T05:53:03;4.90;;;1.70;;
69542;SDS011;56762;49.494;11.768;2022-09-27T05:55:31;9.00;;;4.32;;
69542;SDS011;56762;49.494;11.768;2022-09-27T05:58:00;4.43;;;1.50;;
69542;SDS011;56762;49.494;11.768;2022-09-27T06:00:30;6.60;;;3.17;;
69542;SDS011;56762;49.494;11.768;2022-09-27T06:02:59;4.45;;;1.70;;
69542;SDS011;56762;49.494;11.768;2022-09-27T06:05:28;3.05;;;1.25;;
69542;SDS011;56762;49.494;11.768;2022-09-27T06:07:58;4.50;;;1.42;;
69542;SDS011;56762;49.494;11.768;2022-09-27T06:10:29;1.60;;;0.97;;
69542;SDS011;56762;49.494;11.768;2022-09-27T06:12:58;1.80;;;0.25;;
69542;SDS011;56762;49.494;11.768;2022-09-27T06:15:27;1.85;;;0.30;;
69542;SDS011;56762;49.494;11.768;2022-09-27T06:18:01;3.30;;;0.68;;
69542;SDS011;56762;49.494;11.768;2022-09-27T06:20:32;2.95;;;0.80;;
69542;SDS011;56762;49.494;11.768;2022-09-27T06:23:04;2.40;;;0.70;;
69542;SDS011;56762;49.494;11.768;2022-09-27T06:25:35;1.27;;;0.20;;
69542;SDS011;56762;49.494;11.768;2022-09-27T06:28:06;1.27;;;0.30;;
69542;SDS011;56762;49.494;11.768;2022-09-27T06:30:37;2.42;;;0.77;;
69542;SDS011;56762;49.494;11.768;2022-09-27T06:33:08;1.30;;;0.20;;
69542;SDS011;56762;49.494;11.768;2022-09-27T06:35:39;2.20;;;0.30;;
69542;SDS011;56762;49.494;11.768;2022-09-27T06:38:11;0.70;;;0.20;;
69542;SDS011;56762;49.494;11.768;2022-09-27T06:40:42;1.55;;;0.40;;
69542;SDS011;56762;49.494;11.768;2022-09-27T06:43:12;1.48;;;0.60;;
69542;SDS011;56762;49.494;11.768;2022-09-27T06:45:41;1.75;;;0.40;;
69542;SDS011;56762;49.494;11.768;2022-09-27T06:48:09;1.47;;;0.20;;
69542;SDS011;56762;49.494;11.768;2022-09-27T06:50:40;1.85;;;0.10;;
69542;SDS011;56762;49.494;11.768;2022-09-27T06:53:10;1.70;;;0.22;;
69542;SDS011;56762;49.494;11.768;2022-09-27T06:55:43;1.20;;;0.10;;
69542;SDS011;56762;49.494;11.768;2022-09-27T06:58:11;1.27;;;0.10;;
69542;SDS011;56762;49.494;11.768;2022-09-27T07:00:56;4.50;;;0.80;;
69542;SDS011;56762;49.494;11.768;2022-09-27T07:03:24;3.17;;;0.65;;
69542;SDS011;56762;49.494;11.768;2022-09-27T07:06:02;1.50;;;0.15;;
69542;SDS011;56762;49.494;11.768;2022-09-27T07:08:31;1.55;;;0.30;;
69542;SDS011;56762;49.494;11.768;2022-09-27T07:11:03;1.08;;;0.30;;
69542;SDS011;56762;49.494;11.768;2022-09-27T07:13:32;1.33;;;0.20;;
69542;SDS011;56762;49.494;11.768;2022-09-27T07:16:05;2.65;;;0.98;;
69542;SDS011;56762;49.494;11.768;2022-09-27T07:18:33;1.83;;;0.35;;
69542;SDS011;56762;49.494;11.768;2022-09-27T07:21:01;5.32;;;1.70;;
69542;SDS011;56762;49.494;11.768;2022-09-27T07:23:30;4.55;;;1.38;;
69542;SDS011;56762;49.494;11.768;2022-09-27T07:25:59;5.20;;;1.63;;
69542;SDS011;56762;49.494;11.768;2022-09-27T07:28:31;3.35;;;0.45;;
69542;SDS011;56762;49.494;11.768;2022-09-27T07:30:59;1.30;;;0.20;;
69542;SDS011;56762;49.494;11.768;2022-09-27T07:33:28;1.42;;;0.20;;
69542;SDS011;56762;49.494;11.768;2022-09-27T07:35:56;2.45;;;0.40;;
69542;SDS011;56762;49.494;11.768;2022-09-27T07:38:24;1.33;;;0.33;;
69542;SDS011;56762;49.494;11.768;2022-09-27T07:40:53;1.35;;;0.30;;
69542;SDS011;56762;49.494;11.768;2022-09-27T07:43:21;1.02;;;0.30;;
69542;SDS011;56762;49.494;11.768;2022-09-27T07:45:50;1.10;;;0.30;;
69542;SDS011;56762;49.494;11.768;2022-09-27T07:48:18;1.45;;;0.30;;
69542;SDS011;56762;49.494;11.768;2022-09-27T07:50:46;1.60;;;0.30;;
69542;SDS011;56762;49.494;11.768;2022-09-27T07:53:14;1.33;;;0.40;;
69542;SDS011;56762;49.494;11.768;2022-09-27T07:55:41;1.00;;;0.20;;
69542;SDS011;56762;49.494;11.768;2022-09-27T07:58:10;0.60;;;0.20;;
69542;SDS011;56762;49.494;11.768;2022-09-27T08:00:39;0.77;;;0.28;;
69542;SDS011;56762;49.494;11.768;2022-09-27T08:03:09;1.33;;;0.10;;
69542;SDS011;56762;49.494;11.768;2022-09-27T08:05:41;2.88;;;0.25;;
69542;SDS011;56762;49.494;11.768;2022-09-27T08:08:10;1.45;;;0.30;;
69542;SDS011;56762;49.494;11.768;2022-09-27T08:10:37;0.98;;;0.30;;
69542;SDS011;56762;49.494;11.768;2022-09-27T08:13:13;0.90;;;0.20;;
69542;SDS011;56762;49.494;11.768;2022-09-27T08:15:43;1.90;;;0.30;;
69542;SDS011;56762;49.494;11.768;2022-09-27T08:18:14;2.00;;;0.40;;
69542;SDS011;56762;49.494;11.768;2022-09-27T08:20:42;0.40;;;0.10;;
69542;SDS011;56762;49.494;11.768;2022-09-27T08:23:12;0.47;;;0.10;;
69542;SDS011;56762;49.494;11.768;2022-09-27T08:25:40;1.05;;;0.20;;
69542;SDS011;56762;49.494;11.768;2022-09-27T08:28:08;0.70;;;0.20;;
69542;SDS011;56762;49.494;11.768;2022-09-27T08:30:36;0.90;;;0.20;;
69542;SDS011;56762;49.494;11.768;2022-09-27T08:33:04;0.90;;;0.30;;
69542;SDS011;56762;49.494;11.768;2022-09-27T08:35:35;5.65;;;2.15;;
69542;SDS011;56762;49.494;11.768;2022-09-27T08:38:03;1.70;;;0.40;;
69542;SDS011;56762;49.494;11.768;2022-09-27T08:40:35;0.83;;;0.20;;
69542;SDS011;56762;49.494;11.768;2022-09-27T08:43:14;1.70;;;0.30;;
69542;SDS011;56762;49.494;11.768;2022-09-27T08:45:56;1.55;;;0.30;;
69542;SDS011;56762;49.494;11.768;2022-09-27T08:48:31;0.70;;;0.40;;
69542;SDS011;56762;49.494;11.768;2022-09-27T08:51:08;0.75;;;0.20;;
69542;SDS011;56762;49.494;11.768;2022-09-27T08:53:40;2.47;;;1.00;;
69542;SDS011;56762;49.494;11.768;2022-09-27T08:56:12;2.97;;;1.25;;
69542;SDS011;56762;49.494;11.768;2022-09-27T08:58:47;2.58;;;0.60;;
69542;SDS011;56762;49.494;11.768;2022-09-27T09:01:19;1.27;;;0.57;;
69542;SDS011;56762;49.494;11.768;2022-09-27T09:03:53;1.42;;;0.50;;
69542;SDS011;56762;49.494;11.768;2022-09-27T09:06:25;2.50;;;1.23;;
69542;SDS011;56762;49.494;11.768;2022-09-27T09:08:59;2.28;;;1.02;;
69542;SDS011;56762;49.494;11.768;2022-09-27T09:11:40;0.93;;;0.43;;
69542;SDS011;56762;49.494;11.768;2022-09-27T09:17:34;2.28;;;0.68;;
69542;SDS011;56762;49.494;11.768;2022-09-27T09:20:15;3.47;;;0.70;;
69542;SDS011;56762;49.494;11.768;2022-09-27T09:22:59;1.80;;;0.50;;
69542;SDS011;56762;49.494;11.768;2022-09-27T09:25:44;3.08;;;1.45;;
69542;SDS011;56762;49.494;11.768;2022-09-27T09:28:24;1.83;;;0.80;;
69542;SDS011;56762;49.494;11.768;2022-09-27T09:31:04;4.10;;;1.45;;
69542;SDS011;56762;49.494;11.768;2022-09-27T09:33:39;3.20;;;0.80;;
69542;SDS011;56762;49.494;11.768;2022-09-27T09:36:12;3.40;;;1.25;;
69542;SDS011;56762;49.494;11.768;2022-09-27T09:38:52;3.88;;;0.82;;
69542;SDS011;56762;49.494;11.768;2022-09-27T09:41:23;1.45;;;0.30;;
69542;SDS011;56762;49.494;11.768;2022-09-27T09:43:55;1.10;;;0.20;;
69542;SDS011;56762;49.494;11.768;2022-09-27T09:46:30;0.87;;;0.30;;
69542;SDS011;56762;49.494;11.768;2022-09-27T09:49:11;1.77;;;0.47;;
69542;SDS011;56762;49.494;11.768;2022-09-27T09:51:44;1.55;;;0.40;;
69542;SDS011;56762;49.494;11.768;2022-09-27T09:54:20;1.40;;;0.35;;
69542;SDS011;56762;49.494;11.768;2022-09-27T09:56:54;2.10;;;0.32;;
69542;SDS011;56762;49.494;11.768;2022-09-27T09:59:27;3.27;;;1.57;;
69542;SDS011;56762;49.494;11.768;2022-09-27T10:02:16;2.78;;;1.20;;
69542;SDS011;56762;49.494;11.768;2022-09-27T10:04:49;1.08;;;0.30;;
69542;SDS011;56762;49.494;11.768;2022-09-27T10:07:19;2.22;;;0.30;;
69542;SDS011;56762;49.494;11.768;2022-09-27T10:09:51;0.88;;;0.20;;
69542;SDS011;56762;49.494;11.768;2022-09-27T10:12:24;3.07;;;0.60;;
69542;SDS011;56762;49.494;11.768;2022-09-27T10:14:52;2.65;;;0.50;;
69542;SDS011;56762;49.494;11.768;2022-09-27T10:17:27;2.78;;;0.70;;
69542;SDS011;56762;49.494;11.768;2022-09-27T10:20:04;0.80;;;0.30;;
69542;SDS011;56762;49.494;11.768;2022-09-27T10:22:34;2.10;;;0.30;;
69542;SDS011;56762;49.494;11.768;2022-09-27T10:25:07;0.93;;;0.40;;
69542;SDS011;56762;49.494;11.768;2022-09-27T10:27:40;1.60;;;0.38;;
69542;SDS011;56762;49.494;11.768;2022-09-27T10:30:20;1.23;;;0.40;;
69542;SDS011;56762;49.494;11.768;2022-09-27T10:32:53;1.92;;;0.50;;
69542;SDS011;56762;49.494;11.768;2022-09-27T10:35:34;1.45;;;0.35;;
69542;SDS011;56762;49.494;11.768;2022-09-27T10:38:20;1.93;;;0.30;;
69542;SDS011;56762;49.494;11.768;2022-09-27T10:40:52;1.90;;;0.38;;
69542;SDS011;56762;49.494;11.768;2022-09-27T10:43:23;1.30;;;0.43;;
69542;SDS011;56762;49.494;11.768;2022-09-27T10:45:59;0.85;;;0.40;;
69542;SDS011;56762;49.494;11.768;2022-09-27T10:48:33;0.77;;;0.30;;
69542;SDS011;56762;49.494;11.768;2022-09-27T10:51:02;0.80;;;0.20;;
69542;SDS011;56762;49.494;11.768;2022-09-27T10:53:32;1.60;;;0.20;;
69542;SDS011;56762;49.494;11.768;2022-09-27T10:56:03;1.38;;;0.25;;
69542;SDS011;56762;49.494;11.768;2022-09-27T10:58:32;3.55;;;1.70;;
69542;SDS011;56762;49.494;11.768;2022-09-27T11:01:01;1.88;;;0.52;;
69542;SDS011;56762;49.494;11.768;2022-09-27T11:03:32;1.20;;;0.47;;
69542;SDS011;56762;49.494;11.768;2022-09-27T11:06:17;1.25;;;0.38;;
69542;SDS011;56762;49.494;11.768;2022-09-27T11:08:46;1.50;;;0.20;;
69542;SDS011;56762;49.494;11.768;2022-09-27T11:11:18;1.48;;;0.22;;
69542;SDS011;56762;49.494;11.768;2022-09-27T11:13:56;0.90;;;0.20;;
69542;SDS011;56762;49.494;11.768;2022-09-27T11:16:29;0.70;;;0.20;;
69542;SDS011;56762;49.494;11.768;2022-09-27T11:19:12;0.82;;;0.30;;
69542;SDS011;56762;49.494;11.768;2022-09-27T11:21:58;0.85;;;0.15;;
69542;SDS011;56762;49.494;11.768;2022-09-27T11:24:35;1.02;;;0.20;;
69542;SDS011;56762;49.494;11.768;2022-09-27T11:27:18;1.33;;;0.22;;
69542;SDS011;56762;49.494;11.768;2022-09-27T11:29:59;1.17;;;0.27;;
69542;SDS011;56762;49.494;11.768;2022-09-27T11:32:34;3.13;;;0.70;;
69542;SDS011;56762;49.494;11.768;2022-09-27T11:35:25;0.95;;;0.38;;
69542;SDS011;56762;49.494;11.768;2022-09-27T11:38:11;1.35;;;0.50;;
69542;SDS011;56762;49.494;11.768;2022-09-27T11:41:15;1.45;;;0.50;;
69542;SDS011;56762;49.494;11.768;2022-09-27T11:44:01;1.50;;;0.40;;
69542;SDS011;56762;49.494;11.768;2022-09-27T11:46:47;0.85;;;0.30;;
69542;SDS011;56762;49.494;11.768;2022-09-27T11:49:28;0.80;;;0.20;;
69542;SDS011;56762;49.494;11.768;2022-09-27T11:52:18;1.27;;;0.40;;
69542;SDS011;56762;49.494;11.768;2022-09-27T11:54:57;1.35;;;0.52;;
69542;SDS011;56762;49.494;11.768;2022-09-27T11:57:38;1.77;;;0.60;;
69542;SDS011;56762;49.494;11.768;2022-09-27T12:00:18;1.23;;;0.30;;
69542;SDS011;56762;49.494;11.768;2022-09-27T12:02:55;0.55;;;0.20;;
69542;SDS011;56762;49.494;11.768;2022-09-27T12:05:38;0.68;;;0.10;;
69542;SDS011;56762;49.494;11.768;2022-09-27T12:08:27;0.90;;;0.30;;
69542;SDS011;56762;49.494;11.768;2022-09-27T12:11:18;1.00;;;0.23;;
69542;SDS011;56762;49.494;11.768;2022-09-27T12:13:47;2.70;;;0.85;;
69542;SDS011;56762;49.494;11.768;2022-09-27T12:16:21;2.20;;;0.43;;
69542;SDS011;56762;49.494;11.768;2022-09-27T12:18:49;0.65;;;0.10;;
69542;SDS011;56762;49.494;11.768;2022-09-27T12:21:20;0.60;;;0.08;;
69542;SDS011;56762;49.494;11.768;2022-09-27T12:23:48;1.30;;;0.20;;
69542;SDS011;56762;49.494;11.768;2022-09-27T12:26:18;2.88;;;0.30;;
69542;SDS011;56762;49.494;11.768;2022-09-27T12:28:51;0.70;;;0.20;;
69542;SDS011;56762;49.494;11.768;2022-09-27T12:31:25;1.65;;;0.50;;
69542;SDS011;56762;49.494;11.768;2022-09-27T12:34:07;0.80;;;0.20;;
69542;SDS011;56762;49.494;11.768;2022-09-27T12:36:46;0.90;;;0.20;;
69542;SDS011;56762;49.494;11.768;2022-09-27T12:39:18;0.50;;;0.20;;
69542;SDS011;56762;49.494;11.768;2022-09-27T12:41:52;1.98;;;0.20;;
69542;SDS011;56762;49.494;11.768;2022-09-27T12:44:27;1.27;;;0.10;;
69542;SDS011;56762;49.494;11.768;2022-09-27T12:47:01;0.60;;;0.10;;
69542;SDS011;56762;49.494;11.768;2022-09-27T12:49:39;4.43;;;0.20;;
69542;SDS011;56762;49.494;11.768;2022-09-27T12:52:17;0.40;;;0.10;;
69542;SDS011;56762;49.494;11.768;2022-09-27T12:54:55;1.17;;;0.30;;
69542;SDS011;56762;49.494;11.768;2022-09-27T12:57:40;0.75;;;0.28;;
69542;SDS011;56762;49.494;11.768;2022-09-27T13:00:18;2.08;;;0.65;;
69542;SDS011;56762;49.494;11.768;2022-09-27T13:02:58;1.57;;;0.43;;
69542;SDS011;56762;49.494;11.768;2022-09-27T13:08:51;1.05;;;0.20;;
69542;SDS011;56762;49.494;11.768;2022-09-27T13:11:33;1.50;;;0.40;;
69542;SDS011;56762;49.494;11.768;2022-09-27T13:14:09;0.70;;;0.20;;
69542;SDS011;56762;49.494;11.768;2022-09-27T13:16:44;1.47;;;0.30;;
69542;SDS011;56762;49.494;11.768;2022-09-27T13:22:09;1.08;;;0.30;;
69542;SDS011;56762;49.494;11.768;2022-09-27T13:24:57;1.20;;;0.20;;
69542;SDS011;56762;49.494;11.768;2022-09-27T13:27:38;0.90;;;0.20;;
69542;SDS011;56762;49.494;11.768;2022-09-27T13:36:19;1.80;;;0.40;;
69542;SDS011;56762;49.494;11.768;2022-09-27T13:41:53;1.63;;;0.45;;
69542;SDS011;56762;49.494;11.768;2022-09-27T13:44:33;1.17;;;0.30;;
69542;SDS011;56762;49.494;11.768;2022-09-27T13:47:14;0.95;;;0.20;;
69542;SDS011;56762;49.494;11.768;2022-09-27T13:49:52;0.98;;;0.30;;
69542;SDS011;56762;49.494;11.768;2022-09-27T13:52:26;1.67;;;0.40;;
69542;SDS011;56762;49.494;11.768;2022-09-27T13:54:59;1.30;;;0.30;;
69542;SDS011;56762;49.494;11.768;2022-09-27T13:57:43;2.40;;;0.70;;
69542;SDS011;56762;49.494;11.768;2022-09-27T14:00:16;5.47;;;1.63;;
69542;SDS011;56762;49.494;11.768;2022-09-27T14:02:54;1.25;;;0.30;;
69542;SDS011;56762;49.494;11.768;2022-09-27T14:05:29;1.95;;;0.50;;
69542;SDS011;56762;49.494;11.768;2022-09-27T14:08:03;1.50;;;0.50;;
69542;SDS011;56762;49.494;11.768;2022-09-27T14:10:33;1.20;;;0.40;;
69542;SDS011;56762;49.494;11.768;2022-09-27T14:13:02;1.00;;;0.30;;
69542;SDS011;56762;49.494;11.768;2022-09-27T14:15:31;2.85;;;0.40;;
69542;SDS011;56762;49.494;11.768;2022-09-27T14:18:00;1.13;;;0.20;;
69542;SDS011;56762;49.494;11.768;2022-09-27T14:20:29;1.55;;;0.40;;
69542;SDS011;56762;49.494;11.768;2022-09-27T14:23:03;1.80;;;0.40;;
69542;SDS011;56762;49.494;11.768;2022-09-27T14:25:31;1.70;;;0.55;;
69542;SDS011;56762;49.494;11.768;2022-09-27T14:27:59;2.10;;;0.50;;
69542;SDS011;56762;49.494;11.768;2022-09-27T14:30:28;1.75;;;0.40;;
69542;SDS011;56762;49.494;11.768;2022-09-27T14:32:56;2.63;;;0.85;;
69542;SDS011;56762;49.494;11.768;2022-09-27T14:35:27;1.07;;;0.40;;
69542;SDS011;56762;49.494;11.768;2022-09-27T14:38:16;1.33;;;0.50;;
69542;SDS011;56762;49.494;11.768;2022-09-27T14:41:04;1.33;;;0.50;;
69542;SDS011;56762;49.494;11.768;2022-09-27T14:43:33;1.95;;;0.57;;
69542;SDS011;56762;49.494;11.768;2022-09-27T14:46:03;1.80;;;0.68;;
69542;SDS011;56762;49.494;11.768;2022-09-27T14:48:34;3.47;;;1.00;;
69542;SDS011;56762;49.494;11.768;2022-09-27T14:51:03;6.97;;;1.65;;
69542;SDS011;56762;49.494;11.768;2022-09-27T14:53:49;6.60;;;1.60;;
69542;SDS011;56762;49.494;11.768;2022-09-27T14:56:24;4.65;;;2.25;;
69542;SDS011;56762;49.494;11.768;2022-09-27T14:58:54;12.85;;;6.65;;
69542;SDS011;56762;49.494;11.768;2022-09-27T15:01:28;10.83;;;5.23;;
69542;SDS011;56762;49.494;11.768;2022-09-27T15:04:01;6.75;;;3.15;;
69542;SDS011;56762;49.494;11.768;2022-09-27T15:06:33;2.97;;;1.40;;
69542;SDS011;56762;49.494;11.768;2022-09-27T15:09:03;3.40;;;1.33;;
69542;SDS011;56762;49.494;11.768;2022-09-27T15:11:35;3.38;;;1.35;;
69542;SDS011;56762;49.494;11.768;2022-09-27T15:14:09;4.97;;;1.87;;
69542;SDS011;56762;49.494;11.768;2022-09-27T15:16:42;3.22;;;1.27;;
69542;SDS011;56762;49.494;11.768;2022-09-27T15:19:12;4.75;;;2.13;;
69542;SDS011;56762;49.494;11.768;2022-09-27T15:21:43;2.80;;;1.45;;
69542;SDS011;56762;49.494;11.768;2022-09-27T15:27:16;2.97;;;1.10;;
69542;SDS011;56762;49.494;11.768;2022-09-27T15:29:47;1.70;;;0.60;;
69542;SDS011;56762;49.494;11.768;2022-09-27T15:32:16;3.72;;;1.17;;
69542;SDS011;56762;49.494;11.768;2022-09-27T15:34:46;6.60;;;1.50;;
69542;SDS011;56762;49.494;11.768;2022-09-27T15:37:23;3.28;;;1.17;;